sensor_id;sensor_type;location;lat;lon;timestamp;P1;durP1;ratioP1;P2;durP2;ratioP2
61477;SDS011;47345;52.334;10.392;2023-12-20T00:00:52;4.30;;;3.80;;
61477;SDS011;47345;52.334;10.392;2023-12-20T00:03:23;4.10;;;3.60;;
61477;SDS011;47345;52.334;10.392;2023-12-20T00:05:53;5.20;;;4.10;;
61477;SDS011;47345;52.334;10.392;2023-12-20T00:08:24;4.50;;;3.70;;
61477;SDS011;47345;52.334;10.392;2023-12-20T00:10:54;4.90;;;4.00;;
61477;SDS011;47345;52.334;10.392;2023-12-20T00:13:24;4.90;;;3.60;;
61477;SDS011;47345;52.334;10.392;2023-12-20T00:15:55;4.00;;;3.60;;
61477;SDS011;47345;52.334;10.392;2023-12-20T00:18:25;6.50;;;4.20;;
61477;SDS011;47345;52.334;10.392;2023-12-20T00:20:56;4.80;;;3.70;;
61477;SDS011;47345;52.334;10.392;2023-12-20T00:23:26;5.30;;;3.80;;
61477;SDS011;47345;52.334;10.392;2023-12-20T00:25:57;5.50;;;3.40;;
61477;SDS011;47345;52.334;10.392;2023-12-20T00:28:27;4.70;;;2.90;;
61477;SDS011;47345;52.334;10.392;2023-12-20T00:30:57;4.20;;;3.00;;
61477;SDS011;47345;52.334;10.392;2023-12-20T00:33:28;3.40;;;2.60;;
61477;SDS011;47345;52.334;10.392;2023-12-20T00:35:59;5.90;;;2.60;;
61477;SDS011;47345;52.334;10.392;2023-12-20T00:38:29;5.60;;;3.50;;
61477;SDS011;47345;52.334;10.392;2023-12-20T00:41:00;4.80;;;2.90;;
61477;SDS011;47345;52.334;10.392;2023-12-20T00:43:31;5.30;;;3.10;;
61477;SDS011;47345;52.334;10.392;2023-12-20T00:46:01;6.00;;;2.50;;
61477;SDS011;47345;52.334;10.392;2023-12-20T00:48:32;4.60;;;2.70;;
61477;SDS011;47345;52.334;10.392;2023-12-20T00:51:03;5.00;;;2.60;;
61477;SDS011;47345;52.334;10.392;2023-12-20T00:53:34;6.30;;;3.10;;
61477;SDS011;47345;52.334;10.392;2023-12-20T00:56:05;4.30;;;2.50;;
61477;SDS011;47345;52.334;10.392;2023-12-20T00:58:36;3.90;;;2.40;;
61477;SDS011;47345;52.334;10.392;2023-12-20T01:01:06;4.10;;;2.40;;
61477;SDS011;47345;52.334;10.392;2023-12-20T01:03:37;5.20;;;2.60;;
61477;SDS011;47345;52.334;10.392;2023-12-20T01:06:07;5.70;;;2.90;;
61477;SDS011;47345;52.334;10.392;2023-12-20T01:08:38;5.60;;;2.60;;
61477;SDS011;47345;52.334;10.392;2023-12-20T01:11:08;6.30;;;3.10;;
61477;SDS011;47345;52.334;10.392;2023-12-20T01:13:39;6.00;;;3.70;;
61477;SDS011;47345;52.334;10.392;2023-12-20T01:16:10;7.70;;;5.60;;
61477;SDS011;47345;52.334;10.392;2023-12-20T01:18:41;9.20;;;6.20;;
61477;SDS011;47345;52.334;10.392;2023-12-20T01:21:12;8.70;;;5.30;;
61477;SDS011;47345;52.334;10.392;2023-12-20T01:23:42;10.90;;;6.30;;
61477;SDS011;47345;52.334;10.392;2023-12-20T01:26:13;10.00;;;5.40;;
61477;SDS011;47345;52.334;10.392;2023-12-20T01:28:44;8.90;;;4.70;;
61477;SDS011;47345;52.334;10.392;2023-12-20T01:31:15;11.60;;;5.30;;
61477;SDS011;47345;52.334;10.392;2023-12-20T01:33:45;10.60;;;4.90;;
61477;SDS011;47345;52.334;10.392;2023-12-20T01:36:16;10.50;;;4.40;;
61477;SDS011;47345;52.334;10.392;2023-12-20T01:38:47;16.20;;;4.60;;
61477;SDS011;47345;52.334;10.392;2023-12-20T01:41:17;8.90;;;4.20;;
61477;SDS011;47345;52.334;10.392;2023-12-20T01:43:48;10.10;;;4.00;;
61477;SDS011;47345;52.334;10.392;2023-12-20T01:46:19;6.60;;;3.60;;
61477;SDS011;47345;52.334;10.392;2023-12-20T01:48:50;10.10;;;3.90;;
61477;SDS011;47345;52.334;10.392;2023-12-20T01:51:21;7.80;;;3.60;;
61477;SDS011;47345;52.334;10.392;2023-12-20T01:53:55;12.80;;;3.80;;
61477;SDS011;47345;52.334;10.392;2023-12-20T01:56:28;7.40;;;3.40;;
61477;SDS011;47345;52.334;10.392;2023-12-20T01:58:59;10.20;;;4.00;;
61477;SDS011;47345;52.334;10.392;2023-12-20T02:01:32;11.90;;;3.10;;
61477;SDS011;47345;52.334;10.392;2023-12-20T02:04:03;6.50;;;3.30;;
61477;SDS011;47345;52.334;10.392;2023-12-20T02:06:34;10.30;;;3.40;;
61477;SDS011;47345;52.334;10.392;2023-12-20T02:09:06;7.80;;;3.20;;
61477;SDS011;47345;52.334;10.392;2023-12-20T02:11:37;8.20;;;3.60;;
61477;SDS011;47345;52.334;10.392;2023-12-20T02:14:08;9.80;;;3.20;;
61477;SDS011;47345;52.334;10.392;2023-12-20T02:16:39;8.80;;;3.60;;
61477;SDS011;47345;52.334;10.392;2023-12-20T02:19:12;11.80;;;3.20;;
61477;SDS011;47345;52.334;10.392;2023-12-20T02:21:43;7.10;;;3.00;;
61477;SDS011;47345;52.334;10.392;2023-12-20T02:24:14;5.90;;;3.10;;
61477;SDS011;47345;52.334;10.392;2023-12-20T02:26:45;9.20;;;3.50;;
61477;SDS011;47345;52.334;10.392;2023-12-20T02:29:16;12.00;;;3.20;;
61477;SDS011;47345;52.334;10.392;2023-12-20T02:31:46;6.40;;;2.80;;
61477;SDS011;47345;52.334;10.392;2023-12-20T02:34:18;13.40;;;3.40;;
61477;SDS011;47345;52.334;10.392;2023-12-20T02:36:48;9.90;;;2.90;;
61477;SDS011;47345;52.334;10.392;2023-12-20T02:39:19;11.60;;;3.00;;
61477;SDS011;47345;52.334;10.392;2023-12-20T02:41:51;8.00;;;3.10;;
61477;SDS011;47345;52.334;10.392;2023-12-20T02:44:21;8.40;;;3.40;;
61477;SDS011;47345;52.334;10.392;2023-12-20T02:46:52;7.50;;;2.70;;
61477;SDS011;47345;52.334;10.392;2023-12-20T02:49:22;4.60;;;2.10;;
61477;SDS011;47345;52.334;10.392;2023-12-20T02:51:53;9.60;;;2.60;;
61477;SDS011;47345;52.334;10.392;2023-12-20T02:54:23;7.50;;;3.00;;
61477;SDS011;47345;52.334;10.392;2023-12-20T02:56:54;5.10;;;2.60;;
61477;SDS011;47345;52.334;10.392;2023-12-20T02:59:24;8.90;;;2.50;;
61477;SDS011;47345;52.334;10.392;2023-12-20T03:01:55;5.30;;;2.50;;
61477;SDS011;47345;52.334;10.392;2023-12-20T03:04:25;5.90;;;2.60;;
61477;SDS011;47345;52.334;10.392;2023-12-20T03:06:56;7.80;;;2.30;;
61477;SDS011;47345;52.334;10.392;2023-12-20T03:09:26;15.30;;;2.40;;
61477;SDS011;47345;52.334;10.392;2023-12-20T03:12:05;9.40;;;2.20;;
61477;SDS011;47345;52.334;10.392;2023-12-20T03:14:36;6.10;;;2.20;;
61477;SDS011;47345;52.334;10.392;2023-12-20T03:17:06;8.70;;;2.10;;
61477;SDS011;47345;52.334;10.392;2023-12-20T03:19:37;7.40;;;2.30;;
61477;SDS011;47345;52.334;10.392;2023-12-20T03:22:07;9.00;;;2.00;;
61477;SDS011;47345;52.334;10.392;2023-12-20T03:24:38;5.60;;;2.10;;
61477;SDS011;47345;52.334;10.392;2023-12-20T03:27:08;6.70;;;1.80;;
61477;SDS011;47345;52.334;10.392;2023-12-20T03:29:39;7.70;;;2.20;;
61477;SDS011;47345;52.334;10.392;2023-12-20T03:32:09;3.00;;;2.10;;
61477;SDS011;47345;52.334;10.392;2023-12-20T03:34:39;7.30;;;2.30;;
61477;SDS011;47345;52.334;10.392;2023-12-20T03:37:10;5.80;;;2.30;;
61477;SDS011;47345;52.334;10.392;2023-12-20T03:39:40;10.10;;;2.50;;
61477;SDS011;47345;52.334;10.392;2023-12-20T03:42:11;9.60;;;2.60;;
61477;SDS011;47345;52.334;10.392;2023-12-20T03:44:41;8.50;;;2.20;;
61477;SDS011;47345;52.334;10.392;2023-12-20T03:47:12;7.00;;;2.20;;
61477;SDS011;47345;52.334;10.392;2023-12-20T03:49:42;8.00;;;2.70;;
61477;SDS011;47345;52.334;10.392;2023-12-20T03:52:13;9.20;;;2.20;;
61477;SDS011;47345;52.334;10.392;2023-12-20T03:54:44;9.70;;;2.20;;
61477;SDS011;47345;52.334;10.392;2023-12-20T03:57:14;4.30;;;2.00;;
61477;SDS011;47345;52.334;10.392;2023-12-20T03:59:44;9.40;;;2.10;;
61477;SDS011;47345;52.334;10.392;2023-12-20T04:02:15;2.80;;;1.70;;
61477;SDS011;47345;52.334;10.392;2023-12-20T04:04:46;7.70;;;2.10;;
61477;SDS011;47345;52.334;10.392;2023-12-20T04:07:17;5.80;;;1.90;;
61477;SDS011;47345;52.334;10.392;2023-12-20T04:09:48;6.00;;;2.10;;
61477;SDS011;47345;52.334;10.392;2023-12-20T04:12:19;8.40;;;2.20;;
61477;SDS011;47345;52.334;10.392;2023-12-20T04:14:49;5.00;;;2.10;;
61477;SDS011;47345;52.334;10.392;2023-12-20T04:17:20;8.10;;;2.00;;
61477;SDS011;47345;52.334;10.392;2023-12-20T04:19:51;5.10;;;1.90;;
61477;SDS011;47345;52.334;10.392;2023-12-20T04:22:22;9.40;;;2.30;;
61477;SDS011;47345;52.334;10.392;2023-12-20T04:24:53;10.60;;;2.10;;
61477;SDS011;47345;52.334;10.392;2023-12-20T04:27:23;7.00;;;1.80;;
61477;SDS011;47345;52.334;10.392;2023-12-20T04:29:53;5.00;;;1.70;;
61477;SDS011;47345;52.334;10.392;2023-12-20T04:32:24;4.60;;;2.10;;
61477;SDS011;47345;52.334;10.392;2023-12-20T04:34:54;3.20;;;1.60;;
61477;SDS011;47345;52.334;10.392;2023-12-20T04:37:25;4.70;;;1.90;;
61477;SDS011;47345;52.334;10.392;2023-12-20T04:39:55;4.50;;;1.60;;
61477;SDS011;47345;52.334;10.392;2023-12-20T04:42:26;8.70;;;2.00;;
61477;SDS011;47345;52.334;10.392;2023-12-20T04:44:56;5.50;;;1.70;;
61477;SDS011;47345;52.334;10.392;2023-12-20T04:47:26;4.00;;;1.60;;
61477;SDS011;47345;52.334;10.392;2023-12-20T04:49:57;6.40;;;2.40;;
61477;SDS011;47345;52.334;10.392;2023-12-20T04:52:28;7.00;;;2.00;;
61477;SDS011;47345;52.334;10.392;2023-12-20T04:54:58;5.00;;;2.20;;
61477;SDS011;47345;52.334;10.392;2023-12-20T04:57:28;7.80;;;2.70;;
61477;SDS011;47345;52.334;10.392;2023-12-20T05:00:00;6.50;;;2.00;;
61477;SDS011;47345;52.334;10.392;2023-12-20T05:02:30;6.20;;;2.10;;
61477;SDS011;47345;52.334;10.392;2023-12-20T05:05:01;7.00;;;3.40;;
61477;SDS011;47345;52.334;10.392;2023-12-20T05:07:32;12.20;;;2.90;;
61477;SDS011;47345;52.334;10.392;2023-12-20T05:10:03;7.60;;;2.50;;
61477;SDS011;47345;52.334;10.392;2023-12-20T05:12:36;4.20;;;1.90;;
61477;SDS011;47345;52.334;10.392;2023-12-20T05:15:07;5.60;;;2.10;;
61477;SDS011;47345;52.334;10.392;2023-12-20T05:17:38;6.40;;;2.20;;
61477;SDS011;47345;52.334;10.392;2023-12-20T05:20:09;5.50;;;2.70;;
61477;SDS011;47345;52.334;10.392;2023-12-20T05:22:40;5.90;;;2.10;;
61477;SDS011;47345;52.334;10.392;2023-12-20T05:25:12;9.00;;;2.40;;
61477;SDS011;47345;52.334;10.392;2023-12-20T05:27:43;5.90;;;2.30;;
61477;SDS011;47345;52.334;10.392;2023-12-20T05:30:14;10.00;;;2.30;;
61477;SDS011;47345;52.334;10.392;2023-12-20T05:32:45;8.60;;;2.20;;
61477;SDS011;47345;52.334;10.392;2023-12-20T05:35:16;7.50;;;2.70;;
61477;SDS011;47345;52.334;10.392;2023-12-20T05:37:46;8.20;;;2.30;;
61477;SDS011;47345;52.334;10.392;2023-12-20T05:40:17;9.80;;;2.60;;
61477;SDS011;47345;52.334;10.392;2023-12-20T05:42:48;7.70;;;2.30;;
61477;SDS011;47345;52.334;10.392;2023-12-20T05:45:18;7.20;;;2.40;;
61477;SDS011;47345;52.334;10.392;2023-12-20T05:47:49;3.10;;;1.80;;
61477;SDS011;47345;52.334;10.392;2023-12-20T05:50:19;8.10;;;2.30;;
61477;SDS011;47345;52.334;10.392;2023-12-20T05:52:50;7.20;;;2.40;;
61477;SDS011;47345;52.334;10.392;2023-12-20T05:55:21;13.00;;;4.10;;
61477;SDS011;47345;52.334;10.392;2023-12-20T05:57:52;6.70;;;2.70;;
61477;SDS011;47345;52.334;10.392;2023-12-20T06:00:22;9.20;;;2.40;;
61477;SDS011;47345;52.334;10.392;2023-12-20T06:02:53;9.70;;;2.30;;
61477;SDS011;47345;52.334;10.392;2023-12-20T06:05:23;12.80;;;2.80;;
61477;SDS011;47345;52.334;10.392;2023-12-20T06:07:54;8.10;;;2.80;;
61477;SDS011;47345;52.334;10.392;2023-12-20T06:10:28;7.20;;;2.80;;
61477;SDS011;47345;52.334;10.392;2023-12-20T06:12:59;5.40;;;2.90;;
61477;SDS011;47345;52.334;10.392;2023-12-20T06:15:30;4.40;;;2.00;;
61477;SDS011;47345;52.334;10.392;2023-12-20T06:18:01;8.70;;;2.70;;
61477;SDS011;47345;52.334;10.392;2023-12-20T06:20:32;6.40;;;2.40;;
61477;SDS011;47345;52.334;10.392;2023-12-20T06:23:02;7.70;;;3.10;;
61477;SDS011;47345;52.334;10.392;2023-12-20T06:25:33;8.90;;;3.30;;
61477;SDS011;47345;52.334;10.392;2023-12-20T06:28:04;8.30;;;3.00;;
61477;SDS011;47345;52.334;10.392;2023-12-20T06:30:35;7.20;;;2.60;;
61477;SDS011;47345;52.334;10.392;2023-12-20T06:33:06;7.10;;;2.90;;
61477;SDS011;47345;52.334;10.392;2023-12-20T06:35:37;12.80;;;2.80;;
61477;SDS011;47345;52.334;10.392;2023-12-20T06:38:07;8.10;;;3.00;;
61477;SDS011;47345;52.334;10.392;2023-12-20T06:40:38;11.30;;;3.00;;
61477;SDS011;47345;52.334;10.392;2023-12-20T06:43:10;5.40;;;2.30;;
61477;SDS011;47345;52.334;10.392;2023-12-20T06:45:59;7.20;;;2.60;;
61477;SDS011;47345;52.334;10.392;2023-12-20T06:48:30;8.30;;;2.80;;
61477;SDS011;47345;52.334;10.392;2023-12-20T06:51:01;5.90;;;2.50;;
61477;SDS011;47345;52.334;10.392;2023-12-20T06:53:32;8.80;;;2.60;;
61477;SDS011;47345;52.334;10.392;2023-12-20T06:56:02;7.10;;;2.40;;
61477;SDS011;47345;52.334;10.392;2023-12-20T06:58:33;5.10;;;2.30;;
61477;SDS011;47345;52.334;10.392;2023-12-20T07:01:05;7.00;;;2.70;;
61477;SDS011;47345;52.334;10.392;2023-12-20T07:03:39;10.70;;;3.20;;
61477;SDS011;47345;52.334;10.392;2023-12-20T07:06:10;12.50;;;3.10;;
61477;SDS011;47345;52.334;10.392;2023-12-20T07:08:41;8.90;;;3.10;;
61477;SDS011;47345;52.334;10.392;2023-12-20T07:11:12;10.70;;;3.40;;
61477;SDS011;47345;52.334;10.392;2023-12-20T07:13:42;10.20;;;3.20;;
61477;SDS011;47345;52.334;10.392;2023-12-20T07:16:13;8.40;;;3.00;;
61477;SDS011;47345;52.334;10.392;2023-12-20T07:18:43;8.80;;;3.00;;
61477;SDS011;47345;52.334;10.392;2023-12-20T07:21:14;9.00;;;2.80;;
61477;SDS011;47345;52.334;10.392;2023-12-20T07:23:45;18.00;;;3.20;;
61477;SDS011;47345;52.334;10.392;2023-12-20T07:26:16;8.00;;;3.00;;
61477;SDS011;47345;52.334;10.392;2023-12-20T07:28:47;7.40;;;2.70;;
61477;SDS011;47345;52.334;10.392;2023-12-20T07:31:18;13.70;;;2.80;;
61477;SDS011;47345;52.334;10.392;2023-12-20T07:33:48;12.40;;;3.50;;
61477;SDS011;47345;52.334;10.392;2023-12-20T07:36:20;10.70;;;2.80;;
61477;SDS011;47345;52.334;10.392;2023-12-20T07:38:50;9.40;;;3.20;;
61477;SDS011;47345;52.334;10.392;2023-12-20T07:41:21;10.60;;;3.00;;
61477;SDS011;47345;52.334;10.392;2023-12-20T07:43:51;13.40;;;3.30;;
61477;SDS011;47345;52.334;10.392;2023-12-20T07:46:22;6.80;;;2.70;;
61477;SDS011;47345;52.334;10.392;2023-12-20T07:48:52;13.80;;;4.40;;
61477;SDS011;47345;52.334;10.392;2023-12-20T07:51:23;10.30;;;4.20;;
61477;SDS011;47345;52.334;10.392;2023-12-20T07:53:53;9.50;;;3.40;;
61477;SDS011;47345;52.334;10.392;2023-12-20T07:56:24;11.10;;;3.40;;
61477;SDS011;47345;52.334;10.392;2023-12-20T07:58:54;11.70;;;3.80;;
61477;SDS011;47345;52.334;10.392;2023-12-20T08:01:27;9.30;;;3.70;;
61477;SDS011;47345;52.334;10.392;2023-12-20T08:03:58;6.40;;;2.90;;
61477;SDS011;47345;52.334;10.392;2023-12-20T08:06:28;14.50;;;3.70;;
61477;SDS011;47345;52.334;10.392;2023-12-20T08:08:59;9.50;;;2.80;;
61477;SDS011;47345;52.334;10.392;2023-12-20T08:11:33;11.50;;;3.00;;
61477;SDS011;47345;52.334;10.392;2023-12-20T08:14:04;10.80;;;3.40;;
61477;SDS011;47345;52.334;10.392;2023-12-20T08:16:34;11.60;;;3.30;;
61477;SDS011;47345;52.334;10.392;2023-12-20T08:19:05;9.80;;;3.20;;
61477;SDS011;47345;52.334;10.392;2023-12-20T08:21:36;10.90;;;3.70;;
61477;SDS011;47345;52.334;10.392;2023-12-20T08:24:07;8.80;;;3.20;;
61477;SDS011;47345;52.334;10.392;2023-12-20T08:26:37;10.10;;;3.40;;
61477;SDS011;47345;52.334;10.392;2023-12-20T08:29:08;11.60;;;2.70;;
61477;SDS011;47345;52.334;10.392;2023-12-20T08:31:38;12.60;;;3.60;;
61477;SDS011;47345;52.334;10.392;2023-12-20T08:34:08;9.70;;;2.90;;
61477;SDS011;47345;52.334;10.392;2023-12-20T08:36:41;9.10;;;3.20;;
61477;SDS011;47345;52.334;10.392;2023-12-20T08:39:11;8.10;;;3.10;;
61477;SDS011;47345;52.334;10.392;2023-12-20T08:41:42;10.00;;;2.80;;
61477;SDS011;47345;52.334;10.392;2023-12-20T08:44:13;7.10;;;2.50;;
61477;SDS011;47345;52.334;10.392;2023-12-20T08:46:43;7.30;;;3.10;;
61477;SDS011;47345;52.334;10.392;2023-12-20T08:49:14;8.10;;;2.70;;
61477;SDS011;47345;52.334;10.392;2023-12-20T08:51:45;10.00;;;2.90;;
61477;SDS011;47345;52.334;10.392;2023-12-20T08:54:15;9.00;;;2.90;;
61477;SDS011;47345;52.334;10.392;2023-12-20T08:56:47;11.00;;;3.70;;
61477;SDS011;47345;52.334;10.392;2023-12-20T08:59:18;10.30;;;3.30;;
61477;SDS011;47345;52.334;10.392;2023-12-20T09:01:48;8.90;;;3.20;;
61477;SDS011;47345;52.334;10.392;2023-12-20T09:04:22;12.30;;;3.30;;
61477;SDS011;47345;52.334;10.392;2023-12-20T09:06:53;12.60;;;3.40;;
61477;SDS011;47345;52.334;10.392;2023-12-20T09:09:23;10.00;;;3.60;;
61477;SDS011;47345;52.334;10.392;2023-12-20T09:11:53;8.10;;;3.40;;
61477;SDS011;47345;52.334;10.392;2023-12-20T09:14:24;11.40;;;3.30;;
61477;SDS011;47345;52.334;10.392;2023-12-20T09:16:54;11.90;;;3.60;;
61477;SDS011;47345;52.334;10.392;2023-12-20T09:19:25;8.60;;;3.30;;
61477;SDS011;47345;52.334;10.392;2023-12-20T09:21:56;11.50;;;3.50;;
61477;SDS011;47345;52.334;10.392;2023-12-20T09:24:26;8.60;;;3.60;;
61477;SDS011;47345;52.334;10.392;2023-12-20T09:26:56;10.50;;;3.30;;
61477;SDS011;47345;52.334;10.392;2023-12-20T09:29:27;12.20;;;3.70;;
61477;SDS011;47345;52.334;10.392;2023-12-20T09:31:57;10.70;;;3.30;;
61477;SDS011;47345;52.334;10.392;2023-12-20T09:34:28;11.00;;;3.60;;
61477;SDS011;47345;52.334;10.392;2023-12-20T09:36:58;10.20;;;3.00;;
61477;SDS011;47345;52.334;10.392;2023-12-20T09:39:30;10.00;;;3.40;;
61477;SDS011;47345;52.334;10.392;2023-12-20T09:42:01;14.10;;;3.80;;
61477;SDS011;47345;52.334;10.392;2023-12-20T09:44:33;13.60;;;3.50;;
61477;SDS011;47345;52.334;10.392;2023-12-20T09:47:05;11.60;;;3.30;;
61477;SDS011;47345;52.334;10.392;2023-12-20T09:49:35;9.50;;;3.70;;
61477;SDS011;47345;52.334;10.392;2023-12-20T09:52:07;8.90;;;3.50;;
61477;SDS011;47345;52.334;10.392;2023-12-20T09:54:39;5.50;;;2.70;;
61477;SDS011;47345;52.334;10.392;2023-12-20T09:57:10;10.60;;;3.60;;
61477;SDS011;47345;52.334;10.392;2023-12-20T09:59:41;8.60;;;3.30;;
61477;SDS011;47345;52.334;10.392;2023-12-20T10:02:12;10.00;;;3.50;;
61477;SDS011;47345;52.334;10.392;2023-12-20T10:04:46;12.30;;;3.80;;
61477;SDS011;47345;52.334;10.392;2023-12-20T10:07:17;8.70;;;3.00;;
61477;SDS011;47345;52.334;10.392;2023-12-20T10:09:48;8.70;;;3.40;;
61477;SDS011;47345;52.334;10.392;2023-12-20T10:12:22;8.10;;;3.30;;
61477;SDS011;47345;52.334;10.392;2023-12-20T10:14:53;9.60;;;3.40;;
61477;SDS011;47345;52.334;10.392;2023-12-20T10:17:24;11.80;;;4.20;;
61477;SDS011;47345;52.334;10.392;2023-12-20T10:19:58;13.80;;;3.70;;
61477;SDS011;47345;52.334;10.392;2023-12-20T10:22:28;9.60;;;2.90;;
61477;SDS011;47345;52.334;10.392;2023-12-20T10:25:01;11.30;;;3.30;;
61477;SDS011;47345;52.334;10.392;2023-12-20T10:27:32;8.70;;;3.10;;
61477;SDS011;47345;52.334;10.392;2023-12-20T10:30:03;7.50;;;3.10;;
61477;SDS011;47345;52.334;10.392;2023-12-20T10:32:35;8.70;;;3.10;;
61477;SDS011;47345;52.334;10.392;2023-12-20T10:35:06;9.70;;;3.70;;
61477;SDS011;47345;52.334;10.392;2023-12-20T10:37:37;10.60;;;2.90;;
61477;SDS011;47345;52.334;10.392;2023-12-20T10:40:08;9.00;;;2.90;;
61477;SDS011;47345;52.334;10.392;2023-12-20T10:42:41;14.60;;;3.20;;
61477;SDS011;47345;52.334;10.392;2023-12-20T10:45:12;12.50;;;3.20;;
61477;SDS011;47345;52.334;10.392;2023-12-20T10:47:45;8.80;;;2.70;;
61477;SDS011;47345;52.334;10.392;2023-12-20T10:50:18;10.20;;;3.10;;
61477;SDS011;47345;52.334;10.392;2023-12-20T10:52:49;9.20;;;3.00;;
61477;SDS011;47345;52.334;10.392;2023-12-20T10:55:23;10.00;;;3.20;;
61477;SDS011;47345;52.334;10.392;2023-12-20T10:57:58;7.50;;;3.20;;
61477;SDS011;47345;52.334;10.392;2023-12-20T11:00:35;11.90;;;3.30;;
61477;SDS011;47345;52.334;10.392;2023-12-20T11:03:10;10.80;;;3.80;;
61477;SDS011;47345;52.334;10.392;2023-12-20T11:05:47;6.80;;;2.80;;
61477;SDS011;47345;52.334;10.392;2023-12-20T11:08:25;9.10;;;3.70;;
61477;SDS011;47345;52.334;10.392;2023-12-20T11:11:02;9.00;;;3.40;;
61477;SDS011;47345;52.334;10.392;2023-12-20T11:13:40;12.10;;;3.40;;
61477;SDS011;47345;52.334;10.392;2023-12-20T11:16:16;6.40;;;3.30;;
61477;SDS011;47345;52.334;10.392;2023-12-20T11:18:49;11.60;;;3.50;;
61477;SDS011;47345;52.334;10.392;2023-12-20T11:21:20;9.70;;;3.40;;
61477;SDS011;47345;52.334;10.392;2023-12-20T11:23:51;6.60;;;3.00;;
61477;SDS011;47345;52.334;10.392;2023-12-20T11:26:23;8.20;;;3.30;;
61477;SDS011;47345;52.334;10.392;2023-12-20T11:29:03;9.60;;;3.60;;
61477;SDS011;47345;52.334;10.392;2023-12-20T11:32:02;6.40;;;2.90;;
61477;SDS011;47345;52.334;10.392;2023-12-20T11:34:55;6.90;;;2.50;;
61477;SDS011;47345;52.334;10.392;2023-12-20T11:37:30;12.40;;;3.50;;
61477;SDS011;47345;52.334;10.392;2023-12-20T11:42:39;6.90;;;3.10;;
61477;SDS011;47345;52.334;10.392;2023-12-20T11:45:10;8.30;;;3.20;;
61477;SDS011;47345;52.334;10.392;2023-12-20T11:47:44;10.00;;;3.80;;
61477;SDS011;47345;52.334;10.392;2023-12-20T11:50:18;9.10;;;3.40;;
61477;SDS011;47345;52.334;10.392;2023-12-20T11:52:51;4.90;;;2.70;;
61477;SDS011;47345;52.334;10.392;2023-12-20T11:55:22;8.10;;;3.00;;
61477;SDS011;47345;52.334;10.392;2023-12-20T11:57:53;7.20;;;3.20;;
61477;SDS011;47345;52.334;10.392;2023-12-20T12:00:25;4.50;;;2.30;;
61477;SDS011;47345;52.334;10.392;2023-12-20T12:02:58;9.60;;;2.60;;
61477;SDS011;47345;52.334;10.392;2023-12-20T12:05:31;6.30;;;3.10;;
61477;SDS011;47345;52.334;10.392;2023-12-20T12:08:03;7.60;;;3.10;;
61477;SDS011;47345;52.334;10.392;2023-12-20T12:10:35;9.40;;;2.80;;
61477;SDS011;47345;52.334;10.392;2023-12-20T12:13:06;7.10;;;3.20;;
61477;SDS011;47345;52.334;10.392;2023-12-20T12:15:37;3.60;;;2.30;;
61477;SDS011;47345;52.334;10.392;2023-12-20T12:18:09;5.10;;;2.50;;
61477;SDS011;47345;52.334;10.392;2023-12-20T12:20:44;6.20;;;3.00;;
61477;SDS011;47345;52.334;10.392;2023-12-20T12:23:15;6.30;;;2.20;;
61477;SDS011;47345;52.334;10.392;2023-12-20T12:25:52;5.50;;;2.20;;
61477;SDS011;47345;52.334;10.392;2023-12-20T12:28:23;3.20;;;1.70;;
61477;SDS011;47345;52.334;10.392;2023-12-20T12:30:57;7.10;;;1.80;;
61477;SDS011;47345;52.334;10.392;2023-12-20T12:33:28;1.70;;;1.50;;
61477;SDS011;47345;52.334;10.392;2023-12-20T12:35:59;5.20;;;1.50;;
61477;SDS011;47345;52.334;10.392;2023-12-20T12:38:31;2.20;;;1.30;;
61477;SDS011;47345;52.334;10.392;2023-12-20T12:41:03;2.10;;;1.30;;
61477;SDS011;47345;52.334;10.392;2023-12-20T12:43:34;1.80;;;1.20;;
61477;SDS011;47345;52.334;10.392;2023-12-20T12:46:05;2.30;;;1.30;;
61477;SDS011;47345;52.334;10.392;2023-12-20T12:48:36;3.90;;;1.40;;
61477;SDS011;47345;52.334;10.392;2023-12-20T12:51:10;2.40;;;1.60;;
61477;SDS011;47345;52.334;10.392;2023-12-20T12:53:41;1.60;;;1.40;;
61477;SDS011;47345;52.334;10.392;2023-12-20T12:56:12;3.30;;;1.50;;
61477;SDS011;47345;52.334;10.392;2023-12-20T12:58:43;3.40;;;1.30;;
61477;SDS011;47345;52.334;10.392;2023-12-20T13:01:14;0.90;;;0.90;;
61477;SDS011;47345;52.334;10.392;2023-12-20T13:03:44;1.60;;;1.10;;
61477;SDS011;47345;52.334;10.392;2023-12-20T13:06:15;2.80;;;1.50;;
61477;SDS011;47345;52.334;10.392;2023-12-20T13:08:45;1.40;;;1.20;;
61477;SDS011;47345;52.334;10.392;2023-12-20T13:11:16;1.20;;;1.10;;
61477;SDS011;47345;52.334;10.392;2023-12-20T13:13:47;3.90;;;1.20;;
61477;SDS011;47345;52.334;10.392;2023-12-20T13:16:17;1.50;;;1.10;;
61477;SDS011;47345;52.334;10.392;2023-12-20T13:18:47;1.80;;;1.30;;
61477;SDS011;47345;52.334;10.392;2023-12-20T13:21:18;2.30;;;1.30;;
61477;SDS011;47345;52.334;10.392;2023-12-20T13:23:49;2.90;;;1.20;;
61477;SDS011;47345;52.334;10.392;2023-12-20T13:26:19;2.20;;;1.50;;
61477;SDS011;47345;52.334;10.392;2023-12-20T13:28:50;2.90;;;2.00;;
61477;SDS011;47345;52.334;10.392;2023-12-20T13:31:20;2.50;;;1.30;;
61477;SDS011;47345;52.334;10.392;2023-12-20T13:33:51;1.80;;;1.40;;
61477;SDS011;47345;52.334;10.392;2023-12-20T13:36:22;2.20;;;1.20;;
61477;SDS011;47345;52.334;10.392;2023-12-20T13:38:52;2.60;;;1.40;;
61477;SDS011;47345;52.334;10.392;2023-12-20T13:41:23;3.70;;;1.40;;
61477;SDS011;47345;52.334;10.392;2023-12-20T13:43:53;4.10;;;1.20;;
61477;SDS011;47345;52.334;10.392;2023-12-20T13:46:24;4.10;;;1.40;;
61477;SDS011;47345;52.334;10.392;2023-12-20T13:48:55;5.60;;;1.30;;
61477;SDS011;47345;52.334;10.392;2023-12-20T13:51:26;5.30;;;1.50;;
61477;SDS011;47345;52.334;10.392;2023-12-20T13:53:57;2.80;;;1.20;;
61477;SDS011;47345;52.334;10.392;2023-12-20T13:56:27;4.80;;;1.60;;
61477;SDS011;47345;52.334;10.392;2023-12-20T13:58:59;5.20;;;1.50;;
61477;SDS011;47345;52.334;10.392;2023-12-20T14:01:29;4.10;;;1.50;;
61477;SDS011;47345;52.334;10.392;2023-12-20T14:04:00;5.00;;;1.60;;
61477;SDS011;47345;52.334;10.392;2023-12-20T14:06:30;6.10;;;1.60;;
61477;SDS011;47345;52.334;10.392;2023-12-20T14:09:01;3.30;;;1.30;;
61477;SDS011;47345;52.334;10.392;2023-12-20T14:11:31;3.50;;;1.70;;
61477;SDS011;47345;52.334;10.392;2023-12-20T14:14:02;4.40;;;1.60;;
61477;SDS011;47345;52.334;10.392;2023-12-20T14:16:32;2.50;;;1.40;;
61477;SDS011;47345;52.334;10.392;2023-12-20T14:19:03;4.90;;;1.90;;
61477;SDS011;47345;52.334;10.392;2023-12-20T14:21:35;1.10;;;1.10;;
61477;SDS011;47345;52.334;10.392;2023-12-20T14:24:06;3.50;;;1.40;;
61477;SDS011;47345;52.334;10.392;2023-12-20T14:26:37;2.20;;;1.30;;
61477;SDS011;47345;52.334;10.392;2023-12-20T14:29:07;3.60;;;1.40;;
61477;SDS011;47345;52.334;10.392;2023-12-20T14:31:37;1.50;;;1.30;;
61477;SDS011;47345;52.334;10.392;2023-12-20T14:34:08;1.50;;;1.30;;
61477;SDS011;47345;52.334;10.392;2023-12-20T14:36:39;3.80;;;1.50;;
61477;SDS011;47345;52.334;10.392;2023-12-20T14:39:09;3.00;;;1.50;;
61477;SDS011;47345;52.334;10.392;2023-12-20T14:41:41;6.10;;;1.50;;
61477;SDS011;47345;52.334;10.392;2023-12-20T14:44:12;5.30;;;1.60;;
61477;SDS011;47345;52.334;10.392;2023-12-20T14:46:43;3.10;;;1.60;;
61477;SDS011;47345;52.334;10.392;2023-12-20T14:49:13;6.30;;;1.40;;
61477;SDS011;47345;52.334;10.392;2023-12-20T14:51:44;4.30;;;1.40;;
61477;SDS011;47345;52.334;10.392;2023-12-20T14:54:16;6.10;;;1.60;;
61477;SDS011;47345;52.334;10.392;2023-12-20T14:56:48;7.60;;;2.10;;